createdAt,value
2022-08-09T00:01:57.623Z,102221.88
2022-08-09T00:04:38.491Z,102214.94
2022-08-09T00:07:18.823Z,102219.47
2022-08-09T00:10:01.851Z,102216.25
2022-08-09T00:12:42.047Z,102213.72
2022-08-09T00:15:57.999Z,102209.81
2022-08-09T00:18:26.863Z,102217.31
2022-08-09T00:21:09.616Z,102217.47
2022-08-09T00:23:59.909Z,102215.94
2022-08-09T00:26:42.323Z,102217.25
2022-08-09T00:29:39.117Z,102213.34
2022-08-09T00:32:27.483Z,102220.16
2022-08-09T00:35:10.061Z,102217.63
2022-08-09T00:37:50.283Z,102217.09
2022-08-09T00:40:32.778Z,102219.22
2022-08-09T00:44:14.881Z,102214.03
2022-08-09T00:46:56.476Z,102211.66
2022-08-09T00:50:01.684Z,102215.91
2022-08-09T00:52:42.144Z,102208.16
2022-08-09T00:55:54.184Z,102212.00
2022-08-09T00:58:22.561Z,102219.19
2022-08-09T01:01:15.875Z,102223.19
2022-08-09T01:04:00.659Z,102216.41
2022-08-09T01:06:54.793Z,102220.09
2022-08-09T01:09:42.472Z,102215.03
2022-08-09T01:12:34.624Z,102217.72
2022-08-09T01:15:17.033Z,102216.56
2022-08-09T01:18:02.008Z,102216.72
2022-08-09T01:20:48.887Z,102218.31
2022-08-09T01:24:03.398Z,102220.16
2022-08-09T01:26:53.463Z,102219.47
2022-08-09T01:29:56.445Z,102220.50
2022-08-09T01:32:38.618Z,102217.66
2022-08-09T01:35:37.548Z,102220.50
2022-08-09T01:38:20.931Z,102222.47
2022-08-09T01:41:06.282Z,102221.09
2022-08-09T01:43:51.768Z,102227.59
2022-08-09T01:46:34.519Z,102214.34
2022-08-09T01:49:20.969Z,102219.81
2022-08-09T01:52:12.663Z,102216.47
2022-08-09T01:54:57.565Z,102219.13
2022-08-09T01:57:45.895Z,102230.69
2022-08-09T02:00:35.542Z,102224.59
2022-08-09T02:03:15.738Z,102222.22
2022-08-09T02:06:06.188Z,102221.38
2022-08-09T02:08:57.620Z,102213.50
2022-08-09T02:11:43.635Z,102218.16
2022-08-09T02:14:26.336Z,102223.81
2022-08-09T02:17:29.285Z,102221.44
2022-08-09T02:20:12.116Z,102221.69
2022-08-09T02:22:58.147Z,102222.00
2022-08-09T02:25:42.370Z,102220.31
2022-08-09T02:28:31.073Z,102225.81
2022-08-09T02:31:14.858Z,102222.31
2022-08-09T02:34:12.784Z,102218.09
2022-08-09T02:36:54.507Z,102213.88
2022-08-09T02:39:41.763Z,102216.69
2022-08-09T02:42:27.761Z,102210.75
2022-08-09T02:45:10.604Z,102210.06
2022-08-09T02:47:59.160Z,102209.38
2022-08-09T02:50:46.434Z,102208.81
2022-08-09T02:53:35.109Z,102208.13
2022-08-09T02:56:17.575Z,102210.09
2022-08-09T02:59:04.250Z,102206.03
2022-08-09T03:02:05.878Z,102196.44
2022-08-09T03:04:50.780Z,102199.53
2022-08-09T03:07:32.293Z,102210.41
2022-08-09T03:10:15.095Z,102208.00
2022-08-09T03:12:55.820Z,102210.69
2022-08-09T03:15:40.489Z,102215.34
2022-08-09T03:18:38.387Z,102212.97
2022-08-09T03:21:21.009Z,102221.25
2022-08-09T03:24:06.857Z,102217.88
2022-08-09T03:26:54.394Z,102221.53
2022-08-09T03:29:43.105Z,102225.22
2022-08-09T03:32:35.540Z,102233.38
2022-08-09T03:35:24.581Z,102228.59
2022-08-09T03:38:29.035Z,102229.28
2022-08-09T03:41:15.654Z,102221.16
2022-08-09T03:44:07.769Z,102224.81
2022-08-09T03:46:49.819Z,102220.16
2022-08-09T03:49:32.817Z,102225.78
2022-08-09T03:52:16.055Z,102222.41
2022-08-09T03:54:59.202Z,102227.31
2022-08-09T03:57:44.607Z,102228.31
2022-08-09T04:00:38.250Z,102223.41
2022-08-09T04:03:24.515Z,102226.22
2022-08-09T04:06:15.806Z,102224.66
2022-08-09T04:08:56.065Z,102228.31
2022-08-09T04:11:52.679Z,102233.41
2022-08-09T04:14:53.812Z,102234.34
2022-08-09T04:17:33.949Z,102229.75
2022-08-09T04:20:14.983Z,102237.78
2022-08-09T04:22:55.180Z,102247.72
2022-08-09T04:25:35.007Z,102238.88
2022-08-09T04:28:17.488Z,102246.03
2022-08-09T04:31:13.753Z,102246.03
2022-08-09T04:33:56.942Z,102251.53
2022-08-09T04:36:44.932Z,102253.22
2022-08-09T04:39:30.893Z,102251.41
2022-08-09T04:42:12.973Z,102256.50
2022-08-09T04:44:55.126Z,102258.19
2022-08-09T04:48:03.084Z,102260.72
2022-08-09T04:51:13.932Z,102260.56
2022-08-09T04:53:58.626Z,102267.75
2022-08-09T04:56:36.674Z,102259.59
2022-08-09T04:59:16.137Z,102261.00
2022-08-09T05:01:55.968Z,102261.69
2022-08-09T05:04:35.833Z,102260.16
2022-08-09T05:07:19.865Z,102266.50
2022-08-09T05:10:02.142Z,102265.50
2022-08-09T05:12:43.692Z,102262.41
2022-08-09T05:15:42.744Z,102269.00
2022-08-09T05:18:38.330Z,102264.06
2022-08-09T05:21:36.538Z,102271.41
2022-08-09T05:24:26.952Z,102268.84
2022-08-09T05:27:07.069Z,102270.13
2022-08-09T05:29:48.198Z,102274.22
2022-08-09T05:32:31.479Z,102275.59
2022-08-09T05:35:25.221Z,102276.44
2022-08-09T05:38:05.814Z,102271.94
2022-08-09T05:40:47.609Z,102273.34
2022-08-09T05:43:31.859Z,102276.81
2022-08-09T05:46:13.460Z,102283.16
2022-08-09T05:48:58.540Z,102270.75
2022-08-09T05:51:43.176Z,102280.34
2022-08-09T05:54:27.048Z,102276.94
2022-08-09T05:57:07.003Z,102287.34
2022-08-09T05:59:53.045Z,102284.22
2022-08-09T06:02:33.102Z,102290.25
2022-08-09T06:05:57.299Z,102294.56
2022-08-09T06:08:38.676Z,102286.63
2022-08-09T06:11:20.287Z,102286.09
2022-08-09T06:14:20.884Z,102286.44
2022-08-09T06:17:00.730Z,102289.66
2022-08-09T06:19:49.058Z,102292.22
2022-08-09T06:22:28.936Z,102288.88
2022-08-09T06:25:16.149Z,102292.50
2022-08-09T06:27:55.918Z,102296.72
2022-08-09T06:30:37.723Z,102300.00
2022-08-09T06:33:40.253Z,102298.16
2022-08-09T06:36:17.788Z,102299.47
2022-08-09T06:39:02.746Z,102308.97
2022-08-09T06:42:09.233Z,102312.63
2022-08-09T06:44:51.793Z,102314.88
2022-08-09T06:47:39.880Z,102312.16
2022-08-09T06:50:22.437Z,102324.84
2022-08-09T06:53:05.283Z,102316.69
2022-08-09T06:55:48.432Z,102325.00
2022-08-09T07:00:47.621Z,102320.38
2022-08-09T07:01:35.576Z,102322.72
2022-08-09T07:04:51.064Z,102323.44
2022-08-09T07:07:59.902Z,102322.00
2022-08-09T07:10:32.443Z,102320.50
2022-08-09T07:13:28.251Z,102324.53
2022-08-09T07:16:43.303Z,102325.88
2022-08-09T07:19:15.492Z,102324.75
2022-08-09T07:21:59.735Z,102333.44
2022-08-09T07:24:44.511Z,102342.47
2022-08-09T07:27:34.192Z,102338.88
2022-08-09T07:30:25.070Z,102343.50
2022-08-09T07:33:12.374Z,102339.13
2022-08-09T07:35:56.122Z,102333.75
2022-08-09T07:38:37.921Z,102339.25
2022-08-09T07:41:19.668Z,102342.59
2022-08-09T07:44:00.384Z,102346.44
2022-08-09T07:46:40.161Z,102339.31
2022-08-09T07:49:25.327Z,102341.44
2022-08-09T07:52:16.949Z,102339.75
2022-08-09T07:54:55.966Z,102345.44
2022-08-09T07:57:37.025Z,102340.72
2022-08-09T08:00:36.515Z,102336.59
2022-08-09T08:03:16.198Z,102342.16
2022-08-09T08:05:57.735Z,102341.09
2022-08-09T08:09:01.315Z,102335.91
2022-08-09T08:12:28.107Z,102345.88
2022-08-09T08:15:10.621Z,102347.94
2022-08-09T08:17:58.235Z,102349.75
2022-08-09T08:20:38.573Z,102348.28
2022-08-09T08:23:23.126Z,102352.91
2022-08-09T08:26:11.626Z,102351.84
2022-08-09T08:28:53.919Z,102347.59
2022-08-09T08:32:03.005Z,102350.00
2022-08-09T08:34:36.444Z,102357.22
2022-08-09T08:37:17.797Z,102349.19
2022-08-09T08:39:57.454Z,102354.19
2022-08-09T08:42:38.871Z,102348.78
2022-08-09T08:45:37.138Z,102348.34
2022-08-09T08:48:19.647Z,102342.25
2022-08-09T08:51:01.609Z,102344.97
2022-08-09T08:54:02.930Z,102351.88
2022-08-09T08:56:46.298Z,102352.25
2022-08-09T08:59:46.426Z,102353.00
2022-08-09T09:02:31.304Z,102348.78
2022-08-09T09:05:14.149Z,102343.94
2022-08-09T09:07:57.099Z,102343.19
2022-08-09T09:10:39.736Z,102349.25
2022-08-09T09:13:21.469Z,102349.78
2022-08-09T09:16:05.246Z,102346.34
2022-08-09T09:19:10.745Z,102354.97
2022-08-09T09:22:05.307Z,102351.50
2022-08-09T09:24:49.147Z,102350.53
2022-08-09T09:28:06.343Z,102354.47
2022-08-09T09:30:56.225Z,102352.94
2022-08-09T09:33:44.727Z,102357.22
2022-08-09T09:36:26.531Z,102353.22
2022-08-09T09:39:09.979Z,102352.94
2022-08-09T09:41:54.304Z,102343.28
2022-08-09T09:44:35.587Z,102349.03
2022-08-09T09:47:21.620Z,102348.91
2022-08-09T09:50:14.755Z,102345.72
2022-08-09T09:52:58.940Z,102350.69
2022-08-09T09:55:57.564Z,102341.22
2022-08-09T09:58:49.106Z,102347.50
2022-08-09T10:01:31.292Z,102344.53
2022-08-09T10:04:23.006Z,102342.06
2022-08-09T10:07:24.316Z,102331.50
2022-08-09T10:10:05.743Z,102337.47
2022-08-09T10:12:54.645Z,102333.25
2022-08-09T10:16:09.509Z,102327.22
2022-08-09T10:18:54.406Z,102324.38
2022-08-09T10:21:35.966Z,102327.50
2022-08-09T10:24:25.739Z,102323.81
2022-08-09T10:27:24.711Z,102318.75
2022-08-09T10:33:29.950Z,102315.00
2022-08-09T10:36:20.958Z,102321.94
2022-08-09T10:39:00.802Z,102323.91
2022-08-09T10:41:41.087Z,102318.31
2022-08-09T10:44:23.135Z,102324.19
2022-08-09T10:48:12.059Z,102318.53
2022-08-09T10:50:31.475Z,102310.22
2022-08-09T10:53:23.041Z,102314.34
2022-08-09T10:56:22.819Z,102318.75
2022-08-09T10:59:31.134Z,102315.91
2022-08-09T11:03:15.572Z,102305.13
2022-08-09T11:05:25.471Z,102312.22
2022-08-09T11:08:47.458Z,102320.72
2022-08-09T11:12:13.828Z,102319.28
2022-08-09T11:14:58.871Z,102315.94
2022-08-09T11:17:56.828Z,102323.44
2022-08-09T11:20:47.620Z,102326.13
2022-08-09T11:23:29.992Z,102319.13
2022-08-09T11:26:39.417Z,102317.63
2022-08-09T11:30:04.566Z,102313.69
2022-08-09T11:32:48.412Z,102316.47
2022-08-09T11:35:34.821Z,102311.31
2022-08-09T11:38:32.868Z,102310.72
2022-08-09T11:41:38.512Z,102307.34
2022-08-09T11:44:46.134Z,102300.91
2022-08-09T11:47:45.753Z,102296.78
2022-08-09T11:50:56.287Z,102304.56
2022-08-09T11:53:58.999Z,102295.72
2022-08-09T11:56:34.427Z,102288.53
2022-08-09T11:59:30.213Z,102291.22
2022-08-09T12:02:34.234Z,102276.09
2022-08-09T12:05:17.892Z,102284.56
2022-08-09T12:08:08.228Z,102271.13
2022-08-09T12:10:54.742Z,102265.50
2022-08-09T12:14:09.887Z,102261.34
2022-08-09T12:16:39.948Z,102266.06
2022-08-09T12:19:29.269Z,102265.75
2022-08-09T12:22:12.355Z,102267.69
2022-08-09T12:24:51.906Z,102265.47
2022-08-09T12:29:12.462Z,102262.47
2022-08-09T12:30:39.036Z,102256.34
2022-08-09T12:33:35.346Z,102253.06
2022-08-09T12:36:31.869Z,102257.19
2022-08-09T12:39:15.641Z,102245.59
2022-08-09T12:42:08.909Z,102247.53
2022-08-09T12:44:52.176Z,102243.38
2022-08-09T12:47:41.319Z,102244.94
2022-08-09T12:50:29.881Z,102244.97
2022-08-09T12:53:32.145Z,102235.38
2022-08-09T12:56:39.352Z,102222.16
2022-08-09T12:59:57.957Z,102221.31
2022-08-09T13:02:49.399Z,102227.97
2022-08-09T13:06:14.760Z,102227.66
2022-08-09T13:09:01.130Z,102229.53
2022-08-09T13:11:42.785Z,102225.06
2022-08-09T13:14:42.485Z,102219.56
2022-08-09T13:18:03.619Z,102221.25
2022-08-09T13:22:33.249Z,102214.06
2022-08-09T13:24:17.304Z,102225.72
2022-08-09T13:27:00.065Z,102225.09
2022-08-09T13:30:02.747Z,102223.28
2022-08-09T13:32:48.594Z,102217.22
2022-08-09T13:35:34.850Z,102219.84
2022-08-09T13:38:55.996Z,102216.94
2022-08-09T13:41:58.882Z,102208.56
2022-08-09T13:44:34.442Z,102209.06
2022-08-09T13:47:31.126Z,102207.53
2022-08-09T13:50:31.111Z,102193.28
2022-08-09T13:53:11.074Z,102202.31
2022-08-09T13:55:52.920Z,102199.16
2022-08-09T13:58:53.191Z,102199.56
2022-08-09T14:01:56.058Z,102189.88
2022-08-09T14:04:35.166Z,102192.66
2022-08-09T14:07:15.076Z,102197.69
2022-08-09T14:09:54.753Z,102198.47
2022-08-09T14:12:36.239Z,102202.28
2022-08-09T14:15:19.587Z,102200.47
2022-08-09T14:18:27.500Z,102187.38
2022-08-09T14:21:09.695Z,102196.50
2022-08-09T14:23:55.358Z,102196.41
2022-08-09T14:27:20.610Z,102194.50
2022-08-09T14:30:36.452Z,102190.81
2022-08-09T14:33:06.797Z,102188.44
2022-08-09T14:35:52.838Z,102189.41
2022-08-09T14:38:33.443Z,102193.50
2022-08-09T14:41:34.740Z,102197.75
2022-08-09T14:44:13.929Z,102183.19
2022-08-09T14:47:12.714Z,102192.59
2022-08-09T14:50:01.958Z,102186.41
2022-08-09T14:52:42.105Z,102182.19
2022-08-09T14:55:24.946Z,102180.59
2022-08-09T14:58:05.841Z,102188.00
2022-08-09T15:00:51.116Z,102180.50
2022-08-09T15:03:35.034Z,102183.69
2022-08-09T15:06:15.562Z,102190.69
2022-08-09T15:08:56.903Z,102184.56
2022-08-09T15:11:36.740Z,102192.94
2022-08-09T15:14:19.195Z,102182.06
2022-08-09T15:16:59.410Z,102183.31
2022-08-09T15:19:59.064Z,102172.44
2022-08-09T15:22:52.231Z,102174.66
2022-08-09T15:25:44.123Z,102166.72
2022-08-09T15:28:28.125Z,102177.25
2022-08-09T15:31:14.610Z,102172.91
2022-08-09T15:34:32.703Z,102165.41
2022-08-09T15:37:56.601Z,102171.78
2022-08-09T15:40:43.427Z,102169.63
2022-08-09T15:43:24.856Z,102173.69
2022-08-09T15:46:32.611Z,102178.13
2022-08-09T15:49:35.493Z,102174.56
2022-08-09T15:52:16.264Z,102171.13
2022-08-09T15:54:57.588Z,102165.38
2022-08-09T15:58:08.608Z,102172.38
2022-08-09T16:01:31.600Z,102169.94
2022-08-09T16:04:16.778Z,102159.03
2022-08-09T16:07:05.138Z,102155.66
2022-08-09T16:09:57.838Z,102167.97
2022-08-09T16:12:56.164Z,102168.47
2022-08-09T16:16:04.504Z,102170.38
2022-08-09T16:18:53.808Z,102157.19
2022-08-09T16:21:34.837Z,102168.16
2022-08-09T16:24:34.028Z,102162.69
2022-08-09T16:27:16.351Z,102162.31
2022-08-09T16:30:00.784Z,102158.78
2022-08-09T16:33:03.306Z,102162.78
2022-08-09T16:35:53.172Z,102163.44
2022-08-09T16:38:39.232Z,102160.75
2022-08-09T16:41:24.675Z,102158.03
2022-08-09T16:44:22.713Z,102155.72
2022-08-09T16:48:42.194Z,102159.09
2022-08-09T16:50:32.170Z,102161.44
2022-08-09T16:53:11.914Z,102156.19
2022-08-09T16:56:36.428Z,102161.66
2022-08-09T16:59:18.884Z,102157.28
2022-08-09T17:01:58.408Z,102165.66
2022-08-09T17:04:37.815Z,102156.69
2022-08-09T17:08:46.508Z,102158.41
2022-08-09T17:10:19.851Z,102162.00
2022-08-09T17:13:02.681Z,102161.56
2022-08-09T17:16:00.061Z,102158.44
2022-08-09T17:18:45.327Z,102153.03
2022-08-09T17:21:28.894Z,102159.31
2022-08-09T17:24:30.544Z,102158.91
2022-08-09T17:27:15.346Z,102166.44
2022-08-09T17:30:36.630Z,102163.91
2022-08-09T17:33:22.061Z,102164.13
2022-08-09T17:36:04.523Z,102168.50
2022-08-09T17:38:52.886Z,102168.09
2022-08-09T17:41:58.077Z,102171.88
2022-08-09T17:44:49.140Z,102172.50
2022-08-09T17:47:31.433Z,102168.94
2022-08-09T17:50:37.298Z,102178.56
2022-08-09T17:53:21.566Z,102169.59
2022-08-09T17:56:26.641Z,102181.09
2022-08-09T17:59:16.004Z,102179.41
2022-08-09T18:02:11.338Z,102183.78
2022-08-09T18:04:55.353Z,102178.16
2022-08-09T18:07:36.707Z,102186.09
2022-08-09T18:10:29.066Z,102181.88
2022-08-09T18:13:39.838Z,102188.38
2022-08-09T18:16:11.951Z,102194.41
2022-08-09T18:20:55.190Z,102200.47
2022-08-09T18:22:27.595Z,102194.78
2022-08-09T18:25:16.434Z,102190.59
2022-08-09T18:28:04.915Z,102184.09
2022-08-09T18:30:51.375Z,102198.91
2022-08-09T18:33:46.321Z,102201.81
2022-08-09T18:36:53.414Z,102203.03
2022-08-09T18:39:54.354Z,102199.25
2022-08-09T18:43:06.867Z,102200.50
2022-08-09T18:46:49.687Z,102203.38
2022-08-09T18:49:10.338Z,102205.22
2022-08-09T18:51:55.391Z,102204.59
2022-08-09T18:54:39.124Z,102200.72
2022-08-09T18:57:24.265Z,102210.31
2022-08-09T19:00:42.990Z,102215.25
2022-08-09T19:03:26.817Z,102218.13
2022-08-09T19:06:14.810Z,102218.94
2022-08-09T19:09:02.548Z,102224.50
2022-08-09T19:11:56.256Z,102221.50
2022-08-09T19:14:37.213Z,102220.78
2022-08-09T19:17:54.668Z,102219.25
2022-08-09T19:20:59.145Z,102223.31
2022-08-09T19:24:33.280Z,102230.72
2022-08-09T19:27:03.502Z,102228.72
2022-08-09T19:30:20.994Z,102224.06
2022-08-09T19:32:49.272Z,102230.84
2022-08-09T19:35:57.423Z,102233.66
2022-08-09T19:38:39.816Z,102233.78
2022-08-09T19:41:33.339Z,102231.91
2022-08-09T19:44:17.778Z,102234.94
2022-08-09T19:47:22.854Z,102226.13
2022-08-09T19:50:08.986Z,102243.50
2022-08-09T19:53:05.061Z,102246.41
2022-08-09T19:56:02.914Z,102242.31
2022-08-09T19:59:39.535Z,102233.34
2022-08-09T20:02:18.157Z,102241.81
2022-08-09T20:05:09.996Z,102237.16
2022-08-09T20:07:58.915Z,102244.97
2022-08-09T20:10:45.858Z,102233.56
2022-08-09T20:13:27.689Z,102235.72
2022-08-09T20:16:53.238Z,102234.09
2022-08-09T20:19:48.124Z,102237.53
2022-08-09T20:22:37.754Z,102237.25
2022-08-09T20:25:52.556Z,102234.41
2022-08-09T20:28:47.567Z,102227.88
2022-08-09T20:31:29.116Z,102227.28
2022-08-09T20:34:09.526Z,102224.19
2022-08-09T20:36:51.072Z,102226.03
2022-08-09T20:40:14.847Z,102225.09
2022-08-09T20:42:32.874Z,102226.28
2022-08-09T20:46:01.766Z,102220.75
2022-08-09T20:48:50.587Z,102219.31
2022-08-09T20:51:30.233Z,102221.19
2022-08-09T21:05:54.481Z,102231.81
2022-08-09T21:07:46.410Z,102238.09
2022-08-09T21:10:30.681Z,102238.75
2022-08-09T21:13:14.066Z,102242.31
2022-08-09T21:15:56.488Z,102239.31
2022-08-09T21:19:01.332Z,102246.19
2022-08-09T21:22:02.849Z,102241.00
2022-08-09T21:24:57.843Z,102249.44
2022-08-09T21:28:21.266Z,102235.97
2022-08-09T21:31:19.546Z,102242.72
2022-08-09T21:34:49.910Z,102247.59
2022-08-09T21:37:35.630Z,102248.78
2022-08-09T21:40:32.556Z,102250.97
2022-08-09T21:43:12.875Z,102258.03
2022-08-09T21:46:16.282Z,102260.41
2022-08-09T21:48:56.443Z,102251.13
2022-08-09T21:51:49.907Z,102265.94
2022-08-09T21:54:35.038Z,102262.25
2022-08-09T21:57:25.544Z,102262.72
2022-08-09T22:00:25.650Z,102261.69
2022-08-09T22:03:19.090Z,102273.63
2022-08-09T22:06:01.095Z,102271.91
2022-08-09T22:08:47.313Z,102272.94
2022-08-09T22:12:06.550Z,102271.59
2022-08-09T22:14:58.949Z,102276.78
2022-08-09T22:17:52.856Z,102261.16
2022-08-09T22:20:33.348Z,102263.97
2022-08-09T22:23:13.547Z,102267.34
2022-08-09T22:26:08.005Z,102267.66
2022-08-09T22:28:54.930Z,102270.84
2022-08-09T22:31:36.063Z,102273.88
2022-08-09T22:34:17.358Z,102272.50
2022-08-09T22:37:05.357Z,102271.13
2022-08-09T22:39:58.689Z,102278.19
2022-08-09T22:42:52.286Z,102284.72
2022-08-09T22:48:15.661Z,102278.81
2022-08-09T22:49:16.492Z,102288.22
2022-08-09T22:51:57.959Z,102282.47
2022-08-09T22:55:22.751Z,102285.50
2022-08-09T22:58:04.938Z,102283.25
2022-08-09T23:00:46.805Z,102293.50
2022-08-09T23:04:04.598Z,102291.97
2022-08-09T23:06:49.138Z,102294.44
2022-08-09T23:09:32.056Z,102299.41
2022-08-09T23:12:16.203Z,102298.91
2022-08-09T23:15:11.347Z,102295.69
2022-08-09T23:17:50.856Z,102293.16
2022-08-09T23:20:31.882Z,102298.88
2022-08-09T23:23:13.160Z,102293.66
2022-08-09T23:25:55.668Z,102295.66
2022-08-09T23:28:36.423Z,102289.72
2022-08-09T23:31:15.929Z,102292.91
2022-08-09T23:33:57.033Z,102290.84
2022-08-09T23:36:39.588Z,102294.00
2022-08-09T23:39:42.695Z,102288.94
2022-08-09T23:42:22.690Z,102289.09
2022-08-09T23:45:04.203Z,102288.56
2022-08-09T23:47:59.665Z,102285.34
2022-08-09T23:50:40.596Z,102290.19
2022-08-09T23:53:20.956Z,102283.56
2022-08-09T23:56:03.979Z,102284.91
2022-08-09T23:59:02.209Z,102282.53
